Time;durP1;ratioP1;P1;durP2;ratioP2;P2;SDS_P1;SDS_P2;PMS_P1;PMS_P2;Temp;Humidity;BMP_temperature;BMP_pressure;BME280_temperature;BME280_humidity;BME280_pressure;Samples;Min_cycle;Max_cycle;Signal;HPM_P1;HPM_P2
2022/02/14 00:00:52;;;;;;;;;;;19.50;32.90;;;;;;5092493;28;19912;-63
2022/02/14 00:03:18;;;;;;;;;;;19.50;32.90;;;;;;5092544;28;20396;-63
2022/02/14 00:05:43;;;;;;;;;;;19.50;32.90;;;;;;5092887;28;19908;-63
2022/02/14 00:08:08;;;;;;;;;;;19.50;32.90;;;;;;5092536;28;19908;-63
2022/02/14 00:10:34;;;;;;;;;;;19.60;32.90;;;;;;5092578;28;19988;-63
2022/02/14 00:12:59;;;;;;;;;;;19.50;32.90;;;;;;5074486;28;19908;-63
2022/02/14 00:15:25;;;;;;;;;;;19.50;32.90;;;;;;5074307;28;20003;-64
2022/02/14 00:17:51;;;;;;;;;;;19.60;32.90;;;;;;5092598;28;19962;-63
2022/02/14 00:20:16;;;;;;;;;;;19.60;32.90;;;;;;5092903;28;19954;-63
2022/02/14 00:22:42;;;;;;;;;;;19.50;32.90;;;;;;5092922;28;19916;-63
2022/02/14 00:25:08;;;;;;;;;;;19.50;32.90;;;;;;5092755;28;19965;-64
2022/02/14 00:27:34;;;;;;;;;;;19.50;33.00;;;;;;5092566;28;20006;-63
2022/02/14 00:29:59;;;;;;;;;;;19.50;32.90;;;;;;5092657;28;19958;-63
2022/02/14 00:32:25;;;;;;;;;;;19.50;33.00;;;;;;5092570;28;19954;-63
2022/02/14 00:34:50;;;;;;;;;;;19.60;33.00;;;;;;5092607;28;20391;-64
2022/02/14 00:37:16;;;;;;;;;;;19.50;33.00;;;;;;5092587;28;20272;-63
2022/02/14 00:39:41;;;;;;;;;;;19.50;33.00;;;;;;5092499;28;20367;-64
2022/02/14 00:42:07;;;;;;;;;;;19.50;33.00;;;;;;5092343;28;19969;-63
2022/02/14 00:44:33;;;;;;;;;;;19.50;33.00;;;;;;5092426;28;19970;-64
2022/02/14 00:46:58;;;;;;;;;;;19.50;33.00;;;;;;5092371;28;19912;-63
2022/02/14 00:49:24;;;;;;;;;;;19.60;33.00;;;;;;5074149;28;19959;-63
2022/02/14 00:51:49;;;;;;;;;;;19.50;33.00;;;;;;5092351;28;19909;-63
2022/02/14 00:54:15;;;;;;;;;;;19.50;33.00;;;;;;5093863;28;20391;-63
2022/02/14 00:56:40;;;;;;;;;;;19.50;33.00;;;;;;5096047;28;19908;-63
2022/02/14 00:59:06;;;;;;;;;;;19.50;33.00;;;;;;5095733;28;19987;-63
2022/02/14 01:01:31;;;;;;;;;;;19.50;33.00;;;;;;5095518;28;19921;-64
2022/02/14 01:03:56;;;;;;;;;;;19.50;33.00;;;;;;5095529;28;19941;-64
2022/02/14 01:06:25;;;;;;;;;;;19.50;33.00;;;;;;5077394;28;19950;-64
2022/02/14 01:08:51;;;;;;;;;;;19.50;33.00;;;;;;5095531;28;19916;-63
2022/02/14 01:11:16;;;;;;;;;;;19.50;33.10;;;;;;5095511;28;19909;-63
2022/02/14 01:13:42;;;;;;;;;;;19.50;33.10;;;;;;5077309;28;19916;-64
2022/02/14 01:16:07;;;;;;;;;;;19.50;33.10;;;;;;5077210;28;19913;-63
2022/02/14 01:18:33;;;;;;;;;;;19.50;33.10;;;;;;5095442;28;19973;-63
2022/02/14 01:20:58;;;;;;;;;;;19.50;33.10;;;;;;5095605;28;19908;-63
2022/02/14 01:23:24;;;;;;;;;;;19.50;33.10;;;;;;5095141;28;19916;-64
2022/02/14 01:25:49;;;;;;;;;;;19.50;33.10;;;;;;5095216;28;19914;-63
2022/02/14 01:28:15;;;;;;;;;;;19.50;33.10;;;;;;5095266;28;20314;-63
2022/02/14 01:30:40;;;;;;;;;;;19.50;33.10;;;;;;5095120;28;20288;-63
2022/02/14 01:33:06;;;;;;;;;;;19.50;33.10;;;;;;5095082;28;19909;-63
2022/02/14 01:35:31;;;;;;;;;;;19.50;33.10;;;;;;5095188;28;19999;-63
2022/02/14 01:37:57;;;;;;;;;;;19.50;33.10;;;;;;5076681;28;19908;-63
2022/02/14 01:40:22;;;;;;;;;;;19.50;33.10;;;;;;5094947;28;19908;-63
2022/02/14 01:42:48;;;;;;;;;;;19.50;33.20;;;;;;5094866;28;19923;-63
2022/02/14 01:45:13;;;;;;;;;;;19.50;33.20;;;;;;5076604;28;19957;-63
2022/02/14 01:47:40;;;;;;;;;;;19.50;33.10;;;;;;5076612;28;20442;-64
2022/02/14 01:50:06;;;;;;;;;;;19.50;33.20;;;;;;5094932;28;20006;-64
2022/02/14 01:52:31;;;;;;;;;;;19.50;33.20;;;;;;5076518;28;19956;-64
2022/02/14 01:54:57;;;;;;;;;;;19.50;33.20;;;;;;5094600;28;19912;-64
2022/02/14 01:57:23;;;;;;;;;;;19.50;33.20;;;;;;5094616;28;19908;-63
2022/02/14 01:59:48;;;;;;;;;;;19.50;33.20;;;;;;5094518;28;20256;-64
2022/02/14 02:02:14;;;;;;;;;;;19.50;33.20;;;;;;5094121;28;19920;-63
2022/02/14 02:04:43;;;;;;;;;;;19.50;33.20;;;;;;5094245;28;19915;-63
2022/02/14 02:07:09;;;;;;;;;;;19.50;33.20;;;;;;5093861;28;19912;-63
2022/02/14 02:09:35;;;;;;;;;;;19.50;33.20;;;;;;5094244;28;20316;-63
2022/02/14 02:14:45;;;;;;;;;;;19.50;33.20;;;;;;5094555;28;19915;-63
2022/02/14 02:17:10;;;;;;;;;;;19.50;33.20;;;;;;5094169;28;19908;-64
2022/02/14 02:19:36;;;;;;;;;;;19.50;33.30;;;;;;5093927;28;19908;-63
2022/02/14 02:22:01;;;;;;;;;;;19.50;33.20;;;;;;5094074;28;19909;-63
2022/02/14 02:24:27;;;;;;;;;;;19.50;33.30;;;;;;5094069;28;20005;-63
2022/02/14 02:26:56;;;;;;;;;;;19.50;33.20;;;;;;5093907;28;19959;-63
2022/02/14 02:29:22;;;;;;;;;;;19.50;33.30;;;;;;5093930;28;20007;-64
2022/02/14 02:31:47;;;;;;;;;;;19.50;33.30;;;;;;5093812;28;19970;-63
2022/02/14 02:34:13;;;;;;;;;;;19.50;33.30;;;;;;5093799;28;19914;-64
2022/02/14 02:36:52;;;;;;;;;;;19.50;33.30;;;;;;5093794;28;20335;-63
2022/02/14 02:39:18;;;;;;;;;;;19.50;33.30;;;;;;5093820;28;19920;-64
2022/02/14 02:41:43;;;;;;;;;;;19.50;33.30;;;;;;5093661;28;19908;-63
2022/02/14 02:44:09;;;;;;;;;;;19.50;33.30;;;;;;5093550;28;20018;-63
2022/02/14 02:46:35;;;;;;;;;;;19.50;33.30;;;;;;5093619;28;19908;-63
2022/02/14 02:49:16;;;;;;;;;;;19.50;33.30;;;;;;5093717;28;19908;-64
2022/02/14 02:51:51;;;;;;;;;;;19.50;33.40;;;;;;5093614;28;19908;-63
2022/02/14 02:54:17;;;;;;;;;;;19.50;33.30;;;;;;5093521;28;19912;-63
2022/02/14 02:56:43;;;;;;;;;;;19.40;33.40;;;;;;5093454;28;20324;-63
2022/02/14 02:59:09;;;;;;;;;;;19.50;33.40;;;;;;5093596;28;19908;-64
2022/02/14 03:01:35;;;;;;;;;;;19.50;33.30;;;;;;5075123;28;20146;-63
2022/02/14 03:04:01;;;;;;;;;;;19.50;33.40;;;;;;5093253;28;19916;-64
2022/02/14 03:06:26;;;;;;;;;;;19.50;33.30;;;;;;5093396;28;19908;-64
2022/02/14 03:08:54;;;;;;;;;;;19.50;33.30;;;;;;5092513;28;22229;-65
2022/02/14 03:11:20;;;;;;;;;;;19.50;33.40;;;;;;5093271;28;19922;-64
2022/02/14 03:13:45;;;;;;;;;;;19.40;33.40;;;;;;5074971;28;19908;-64
2022/02/14 03:16:12;;;;;;;;;;;19.50;33.40;;;;;;5075016;28;19908;-63
2022/02/14 03:18:38;;;;;;;;;;;19.40;33.40;;;;;;5093068;28;19995;-63
2022/02/14 03:21:04;;;;;;;;;;;19.50;33.40;;;;;;5074869;28;19962;-64
2022/02/14 03:23:29;;;;;;;;;;;19.40;33.40;;;;;;5092845;28;19955;-64
2022/02/14 03:25:55;;;;;;;;;;;19.50;33.50;;;;;;5093194;28;19966;-63
2022/02/14 03:28:20;;;;;;;;;;;19.40;33.40;;;;;;5093103;28;20369;-64
2022/02/14 03:30:46;;;;;;;;;;;19.40;33.40;;;;;;5092775;28;20356;-63
2022/02/14 03:33:11;;;;;;;;;;;19.50;33.40;;;;;;5093264;28;19912;-63
2022/02/14 03:35:37;;;;;;;;;;;19.40;33.40;;;;;;5092781;28;20156;-63
2022/02/14 03:38:06;;;;;;;;;;;19.40;33.40;;;;;;5092821;28;20279;-63
2022/02/14 03:40:33;;;;;;;;;;;19.50;33.50;;;;;;5092821;28;19908;-63
2022/02/14 03:42:58;;;;;;;;;;;19.40;33.50;;;;;;5092617;28;20710;-63
2022/02/14 03:45:24;;;;;;;;;;;19.40;33.50;;;;;;5092760;28;19947;-63
2022/02/14 03:47:49;;;;;;;;;;;19.40;33.50;;;;;;5092963;28;19915;-64
2022/02/14 03:50:15;;;;;;;;;;;19.40;33.50;;;;;;5074445;28;19939;-63
2022/02/14 03:52:40;;;;;;;;;;;19.40;33.50;;;;;;5092642;28;19908;-63
2022/02/14 03:55:06;;;;;;;;;;;19.50;33.50;;;;;;5092549;28;20447;-63
2022/02/14 03:57:31;;;;;;;;;;;19.40;33.50;;;;;;5074413;28;20421;-63
2022/02/14 03:59:57;;;;;;;;;;;19.40;33.50;;;;;;5074429;28;20016;-63
2022/02/14 04:02:22;;;;;;;;;;;19.40;33.50;;;;;;5092418;28;19966;-63
2022/02/14 04:04:47;;;;;;;;;;;19.40;33.50;;;;;;5092962;28;20363;-63
2022/02/14 04:07:13;;;;;;;;;;;19.50;33.50;;;;;;5092462;28;20002;-63
2022/02/14 04:09:39;;;;;;;;;;;19.40;33.50;;;;;;5092524;28;19908;-63
2022/02/14 04:12:04;;;;;;;;;;;19.40;33.50;;;;;;5092513;28;19908;-63
2022/02/14 04:14:30;;;;;;;;;;;19.50;33.50;;;;;;5092479;28;19908;-64
2022/02/14 04:16:55;;;;;;;;;;;19.40;33.50;;;;;;5092450;28;19916;-64
2022/02/14 04:19:21;;;;;;;;;;;19.40;33.50;;;;;;5092800;28;20348;-63
2022/02/14 04:21:46;;;;;;;;;;;19.40;33.50;;;;;;5092496;28;20371;-63
2022/02/14 04:24:11;;;;;;;;;;;19.40;33.60;;;;;;5092449;28;20363;-63
2022/02/14 04:26:37;;;;;;;;;;;19.40;33.60;;;;;;5092398;28;20387;-64
2022/02/14 04:29:02;;;;;;;;;;;19.40;33.60;;;;;;5093625;28;20305;-64
2022/02/14 04:31:28;;;;;;;;;;;19.40;33.50;;;;;;5096215;28;19912;-63
2022/02/14 04:33:53;;;;;;;;;;;19.40;33.60;;;;;;5096080;28;19970;-64
2022/02/14 04:36:19;;;;;;;;;;;19.40;33.60;;;;;;5096100;28;19949;-63
2022/02/14 04:38:44;;;;;;;;;;;19.40;33.60;;;;;;5096019;28;19908;-64
2022/02/14 04:41:09;;;;;;;;;;;19.40;33.60;;;;;;5095912;28;19908;-63
2022/02/14 04:43:35;;;;;;;;;;;19.50;33.60;;;;;;5095866;28;19988;-63
2022/02/14 04:46:00;;;;;;;;;;;19.40;33.60;;;;;;5095904;28;19963;-64
2022/02/14 04:48:28;;;;;;;;;;;19.40;33.60;;;;;;5095834;28;20355;-64
2022/02/14 04:50:54;;;;;;;;;;;19.40;33.60;;;;;;5096130;28;19908;-64
2022/02/14 04:53:19;;;;;;;;;;;19.40;33.60;;;;;;5095819;28;19915;-63
2022/02/14 04:55:45;;;;;;;;;;;19.40;33.60;;;;;;5077777;28;19938;-64
2022/02/14 04:58:10;;;;;;;;;;;19.40;33.60;;;;;;5096246;28;19908;-64
2022/02/14 05:00:35;;;;;;;;;;;19.40;33.60;;;;;;5095768;28;19923;-64
2022/02/14 05:03:01;;;;;;;;;;;19.40;33.60;;;;;;5095806;28;19920;-64
2022/02/14 05:05:26;;;;;;;;;;;19.40;33.60;;;;;;5095766;28;20404;-63
2022/02/14 05:07:52;;;;;;;;;;;19.40;33.60;;;;;;5095647;28;20348;-63
2022/02/14 05:10:18;;;;;;;;;;;19.40;33.60;;;;;;5095445;28;19912;-63
2022/02/14 05:12:43;;;;;;;;;;;19.40;33.60;;;;;;5095538;28;19908;-64
2022/02/14 05:15:09;;;;;;;;;;;19.40;33.60;;;;;;5095636;28;19908;-63
2022/02/14 05:17:34;;;;;;;;;;;19.50;33.60;;;;;;5095262;28;20343;-64
2022/02/14 05:20:00;;;;;;;;;;;19.50;33.60;;;;;;5095470;28;19908;-63
2022/02/14 05:22:26;;;;;;;;;;;19.50;33.60;;;;;;5095172;28;19908;-64
2022/02/14 05:24:51;;;;;;;;;;;19.50;33.60;;;;;;5095237;28;19908;-64
2022/02/14 05:27:17;;;;;;;;;;;19.50;33.60;;;;;;5095159;28;20343;-63
2022/02/14 05:29:43;;;;;;;;;;;19.50;33.60;;;;;;5095078;28;20382;-63
2022/02/14 05:32:09;;;;;;;;;;;19.60;33.60;;;;;;5095060;28;20425;-63
2022/02/14 05:34:34;;;;;;;;;;;19.60;33.50;;;;;;5076792;28;19943;-63
2022/02/14 05:36:59;;;;;;;;;;;19.60;33.50;;;;;;5094915;28;19989;-63
2022/02/14 05:39:25;;;;;;;;;;;19.70;33.50;;;;;;5094726;28;19908;-64
2022/02/14 05:41:50;;;;;;;;;;;19.70;33.50;;;;;;5093740;28;19962;-63
2022/02/14 05:44:16;;;;;;;;;;;19.70;33.50;;;;;;5094887;28;19962;-64
2022/02/14 05:46:41;;;;;;;;;;;19.70;33.50;;;;;;5076736;28;19909;-64
2022/02/14 05:49:07;;;;;;;;;;;19.70;33.50;;;;;;5094914;28;19948;-63
2022/02/14 05:51:32;;;;;;;;;;;19.70;33.50;;;;;;5094924;28;19908;-64
2022/02/14 05:53:58;;;;;;;;;;;19.70;33.50;;;;;;5094878;28;19945;-64
2022/02/14 05:56:23;;;;;;;;;;;19.70;33.50;;;;;;5094362;28;19908;-64
2022/02/14 05:58:48;;;;;;;;;;;19.70;33.50;;;;;;5094580;28;19915;-63
2022/02/14 06:01:14;;;;;;;;;;;19.70;33.50;;;;;;5072755;28;20321;-63
2022/02/14 06:03:40;;;;;;;;;;;19.80;33.50;;;;;;5074105;28;19969;-64
2022/02/14 06:06:05;;;;;;;;;;;19.70;33.60;;;;;;5074098;28;19908;-63
2022/02/14 06:08:31;;;;;;;;;;;19.80;33.50;;;;;;5074108;28;19947;-64
2022/02/14 06:10:56;;;;;;;;;;;19.80;33.60;;;;;;5074123;28;20395;-64
2022/02/14 06:13:22;;;;;;;;;;;19.80;33.60;;;;;;5073937;28;20348;-64
2022/02/14 06:15:47;;;;;;;;;;;19.80;33.60;;;;;;5073893;28;19912;-64
2022/02/14 06:18:14;;;;;;;;;;;19.80;33.60;;;;;;5074063;28;20259;-64
2022/02/14 06:20:40;;;;;;;;;;;19.80;33.60;;;;;;5073001;28;19996;-63
2022/02/14 06:23:05;;;;;;;;;;;19.80;33.60;;;;;;5073754;28;20358;-63
2022/02/14 06:25:31;;;;;;;;;;;19.80;33.60;;;;;;5073798;28;20012;-63
2022/02/14 06:27:56;;;;;;;;;;;19.80;33.60;;;;;;5073915;28;19916;-63
2022/02/14 06:30:22;;;;;;;;;;;19.80;33.60;;;;;;5073576;28;19909;-63
2022/02/14 06:32:48;;;;;;;;;;;19.80;33.60;;;;;;5073556;28;19927;-63
2022/02/14 06:35:14;;;;;;;;;;;19.90;33.60;;;;;;5073541;28;19908;-63
2022/02/14 06:37:42;;;;;;;;;;;19.90;33.60;;;;;;5072160;28;19908;-63
2022/02/14 06:40:07;;;;;;;;;;;19.90;33.60;;;;;;5073643;28;19908;-63
2022/02/14 06:42:33;;;;;;;;;;;19.90;33.70;;;;;;5073899;28;20299;-64
2022/02/14 06:44:58;;;;;;;;;;;19.90;33.60;;;;;;5074394;28;19908;-64
2022/02/14 06:47:24;;;;;;;;;;;19.90;33.60;;;;;;5073883;28;19952;-63
2022/02/14 06:49:49;;;;;;;;;;;19.90;33.60;;;;;;5073860;28;19962;-64
2022/02/14 06:52:15;;;;;;;;;;;19.90;33.60;;;;;;5071998;28;20286;-64
2022/02/14 06:54:40;;;;;;;;;;;19.90;33.60;;;;;;5072465;28;19908;-64
2022/02/14 06:57:06;;;;;;;;;;;19.90;33.60;;;;;;5072450;28;19985;-63
2022/02/14 06:59:31;;;;;;;;;;;19.90;33.70;;;;;;5073632;28;19958;-64
2022/02/14 07:01:56;;;;;;;;;;;20.00;33.70;;;;;;5087112;28;19920;-63
2022/02/14 07:04:22;;;;;;;;;;;20.00;33.70;;;;;;5093731;28;19924;-64
2022/02/14 07:06:47;;;;;;;;;;;20.00;33.70;;;;;;5093306;28;20316;-64
2022/02/14 07:09:13;;;;;;;;;;;20.00;33.60;;;;;;5093213;28;20402;-64
2022/02/14 07:11:43;;;;;;;;;;;20.00;33.70;;;;;;5093115;28;19908;-64
2022/02/14 07:14:10;;;;;;;;;;;20.00;33.70;;;;;;5093080;28;19912;-64
2022/02/14 07:16:35;;;;;;;;;;;20.00;33.70;;;;;;5074804;28;20076;-64
2022/02/14 07:19:01;;;;;;;;;;;20.00;33.70;;;;;;5074800;28;19974;-64
2022/02/14 07:21:26;;;;;;;;;;;20.00;33.70;;;;;;5092868;28;19908;-65
2022/02/14 07:23:52;;;;;;;;;;;20.00;33.70;;;;;;5092928;28;19957;-64
2022/02/14 07:26:18;;;;;;;;;;;20.00;33.70;;;;;;5083108;28;20605;-64
2022/02/14 07:28:43;;;;;;;;;;;20.10;33.70;;;;;;5091921;28;19909;-64
2022/02/14 07:31:09;;;;;;;;;;;19.90;34.10;;;;;;5082667;28;20294;-63
2022/02/14 07:33:34;;;;;;;;;;;19.50;35.00;;;;;;5091369;28;19916;-63
2022/02/14 07:36:00;;;;;;;;;;;19.20;35.40;;;;;;5079468;28;20386;-63
2022/02/14 07:38:25;;;;;;;;;;;19.10;35.80;;;;;;5069627;28;19916;-64
2022/02/14 07:40:51;;;;;;;;;;;19.00;36.00;;;;;;5086699;28;19923;-64
2022/02/14 07:43:16;;;;;;;;;;;18.90;36.20;;;;;;5086484;28;19921;-65
2022/02/14 07:45:42;;;;;;;;;;;18.90;36.40;;;;;;5071423;28;20080;-64
2022/02/14 07:48:08;;;;;;;;;;;19.00;36.10;;;;;;5085895;28;19928;-63
2022/02/14 07:50:34;;;;;;;;;;;18.90;36.40;;;;;;5084881;28;19986;-64
2022/02/14 07:53:00;;;;;;;;;;;19.00;36.30;;;;;;5068168;28;19912;-66
2022/02/14 07:55:26;;;;;;;;;;;18.90;36.60;;;;;;5088901;28;19912;-64
2022/02/14 07:57:52;;;;;;;;;;;18.90;36.70;;;;;;5087889;28;19919;-63
2022/02/14 08:00:17;;;;;;;;;;;18.80;36.90;;;;;;5080504;28;20339;-63
2022/02/14 08:02:42;;;;;;;;;;;18.80;37.00;;;;;;5069897;28;19924;-63
2022/02/14 08:05:08;;;;;;;;;;;18.90;36.70;;;;;;5084035;28;19916;-64
2022/02/14 08:07:34;;;;;;;;;;;19.00;36.70;;;;;;5095308;28;19954;-65
2022/02/14 08:09:59;;;;;;;;;;;18.90;37.00;;;;;;5093450;28;20512;-64
2022/02/14 08:12:25;;;;;;;;;;;18.90;37.10;;;;;;5094476;28;19908;-65
2022/02/14 08:14:52;;;;;;;;;;;18.90;37.10;;;;;;5094367;28;20030;-62
2022/02/14 08:17:18;;;;;;;;;;;19.00;37.00;;;;;;5094119;28;19916;-63
2022/02/14 08:19:43;;;;;;;;;;;19.00;37.10;;;;;;5092304;28;20328;-63
2022/02/14 08:22:09;;;;;;;;;;;19.00;37.10;;;;;;5088672;28;19916;-64
2022/02/14 08:24:35;;;;;;;;;;;19.00;37.40;;;;;;5083811;28;19969;-62
2022/02/14 08:27:00;;;;;;;;;;;18.90;37.60;;;;;;5085533;28;20342;-62
2022/02/14 08:29:29;;;;;;;;;;;19.00;37.50;;;;;;5081626;28;19912;-62
2022/02/14 08:31:55;;;;;;;;;;;19.10;37.10;;;;;;5070562;28;20003;-62
2022/02/14 08:34:20;;;;;;;;;;;19.00;37.50;;;;;;5091266;28;20022;-62
2022/02/14 08:36:48;;;;;;;;;;;19.00;37.70;;;;;;5087427;28;20419;-63
2022/02/14 08:39:14;;;;;;;;;;;19.00;37.50;;;;;;5067137;28;19920;-62
2022/02/14 08:41:40;;;;;;;;;;;18.90;38.10;;;;;;5092944;28;19918;-62
2022/02/14 08:44:05;;;;;;;;;;;19.00;37.90;;;;;;5090725;28;20376;-62
2022/02/14 08:46:31;;;;;;;;;;;19.00;38.00;;;;;;5084661;28;19920;-63
2022/02/14 08:48:56;;;;;;;;;;;19.10;37.10;;;;;;5077789;28;19951;-62
2022/02/14 08:51:23;;;;;;;;;;;19.50;36.30;;;;;;5080429;28;20378;-63
2022/02/14 08:53:49;;;;;;;;;;;19.70;36.00;;;;;;5079031;28;19959;-63
2022/02/14 08:56:16;;;;;;;;;;;19.80;35.80;;;;;;5088473;28;19920;-64
2022/02/14 08:58:42;;;;;;;;;;;19.90;35.70;;;;;;5087067;28;19998;-63
2022/02/14 09:01:08;;;;;;;;;;;20.00;35.60;;;;;;5089910;28;20376;-64
2022/02/14 09:03:33;;;;;;;;;;;20.00;35.70;;;;;;5073916;28;19923;-63
2022/02/14 09:05:59;;;;;;;;;;;20.00;35.50;;;;;;5090692;28;19916;-61
2022/02/14 09:08:25;;;;;;;;;;;20.00;35.50;;;;;;5084089;28;19999;-64
2022/02/14 09:10:51;;;;;;;;;;;20.00;35.50;;;;;;5093113;28;19912;-63
2022/02/14 09:13:16;;;;;;;;;;;20.00;35.50;;;;;;5076603;28;19946;-63
2022/02/14 09:15:42;;;;;;;;;;;20.10;35.50;;;;;;5091729;28;20363;-62
2022/02/14 09:18:07;;;;;;;;;;;20.10;35.60;;;;;;5083033;28;20407;-61
2022/02/14 09:20:33;;;;;;;;;;;20.10;35.60;;;;;;5085040;28;19990;-63
2022/02/14 09:23:00;;;;;;;;;;;20.20;35.60;;;;;;5092608;28;19920;-62
2022/02/14 09:25:25;;;;;;;;;;;20.10;35.60;;;;;;5094310;28;20010;-62
2022/02/14 09:27:51;;;;;;;;;;;20.10;35.60;;;;;;5083867;28;20402;-62
2022/02/14 09:30:17;;;;;;;;;;;20.10;35.60;;;;;;5076048;28;20364;-62
2022/02/14 09:32:42;;;;;;;;;;;20.20;35.60;;;;;;5058185;28;19914;-61
2022/02/14 09:35:08;;;;;;;;;;;20.10;35.80;;;;;;5075343;28;19986;-63
2022/02/14 09:37:34;;;;;;;;;;;20.10;35.60;;;;;;5091834;28;20041;-63
2022/02/14 09:40:00;;;;;;;;;;;20.20;35.60;;;;;;5083364;28;19909;-63
2022/02/14 09:42:25;;;;;;;;;;;20.10;35.60;;;;;;5089112;28;19923;-62
2022/02/14 09:44:51;;;;;;;;;;;20.10;35.60;;;;;;5093192;28;20406;-64
2022/02/14 09:47:17;;;;;;;;;;;20.10;35.60;;;;;;5062334;28;20364;-62
2022/02/14 09:49:42;;;;;;;;;;;20.20;35.70;;;;;;5094077;28;19916;-63
2022/02/14 09:52:08;;;;;;;;;;;20.20;35.50;;;;;;5081812;28;20017;-64
2022/02/14 09:54:34;;;;;;;;;;;20.20;35.50;;;;;;5073605;28;19912;-64
2022/02/14 09:57:00;;;;;;;;;;;20.20;35.60;;;;;;5079249;28;20030;-63
2022/02/14 09:59:25;;;;;;;;;;;20.10;35.70;;;;;;5093994;28;19920;-63
2022/02/14 10:01:52;;;;;;;;;;;20.20;35.70;;;;;;5083717;28;19920;-64
2022/02/14 10:04:18;;;;;;;;;;;20.20;35.70;;;;;;5081219;28;19920;-62
2022/02/14 10:06:45;;;;;;;;;;;20.20;35.80;;;;;;5086208;28;19985;-63
2022/02/14 10:09:15;;;;;;;;;;;20.20;35.90;;;;;;5070684;28;19916;-63
2022/02/14 10:11:59;;;;;;;;;;;20.20;35.80;;;;;;5093595;28;19957;-64
2022/02/14 10:14:24;;;;;;;;;;;20.20;35.80;;;;;;5087466;28;19919;-63
2022/02/14 10:16:57;;;;;;;;;;;20.20;35.90;;;;;;5093376;28;19907;-63
2022/02/14 10:19:22;;;;;;;;;;;20.20;35.80;;;;;;5092794;28;19958;-64
2022/02/14 10:21:47;;;;;;;;;;;20.20;35.80;;;;;;5089703;28;20401;-63
2022/02/14 10:24:14;;;;;;;;;;;20.10;35.80;;;;;;5088621;28;20368;-64
2022/02/14 10:26:41;;;;;;;;;;;20.20;35.90;;;;;;5064734;28;19973;-63
2022/02/14 10:29:27;;;;;;;;;;;20.20;35.90;;;;;;5084305;28;19916;-64
2022/02/14 10:31:54;;;;;;;;;;;20.20;35.80;;;;;;5088066;28;19920;-64
2022/02/14 10:34:21;;;;;;;;;;;20.20;35.80;;;;;;5091539;28;19939;-63
2022/02/14 10:36:47;;;;;;;;;;;20.20;35.90;;;;;;5092823;28;20439;-64
2022/02/14 10:39:16;;;;;;;;;;;20.30;35.90;;;;;;5091657;28;19912;-64
2022/02/14 10:41:42;;;;;;;;;;;20.30;35.90;;;;;;5077375;28;20375;-62
2022/02/14 10:44:11;;;;;;;;;;;20.40;35.90;;;;;;5089579;28;19924;-62
2022/02/14 10:46:37;;;;;;;;;;;20.40;35.90;;;;;;5073901;28;19909;-63
2022/02/14 10:49:04;;;;;;;;;;;20.30;36.10;;;;;;5091816;28;20371;-63
2022/02/14 10:51:29;;;;;;;;;;;20.30;35.90;;;;;;5092707;28;19908;-63
2022/02/14 10:53:55;;;;;;;;;;;20.30;36.00;;;;;;5091974;28;19942;-62
2022/02/14 10:56:22;;;;;;;;;;;20.30;36.00;;;;;;5091788;28;19908;-65
2022/02/14 10:58:49;;;;;;;;;;;20.30;36.10;;;;;;5092240;28;20450;-64
2022/02/14 11:01:15;;;;;;;;;;;20.30;36.10;;;;;;5075618;28;20003;-65
2022/02/14 11:03:41;;;;;;;;;;;20.40;35.90;;;;;;5092430;28;19916;-66
2022/02/14 11:06:07;;;;;;;;;;;20.40;35.90;;;;;;5091559;28;20408;-63
2022/02/14 11:08:34;;;;;;;;;;;20.40;36.00;;;;;;5092717;28;19947;-63
2022/02/14 11:11:01;;;;;;;;;;;20.40;36.00;;;;;;5093111;28;19908;-62
2022/02/14 11:13:28;;;;;;;;;;;20.40;36.00;;;;;;5085769;28;19916;-62
2022/02/14 11:15:54;;;;;;;;;;;20.40;36.00;;;;;;5071713;28;19947;-63
2022/02/14 11:18:20;;;;;;;;;;;20.40;36.10;;;;;;5075336;28;19912;-62
2022/02/14 11:20:48;;;;;;;;;;;20.50;36.10;;;;;;5091846;28;19908;-63
2022/02/14 11:23:15;;;;;;;;;;;20.40;36.20;;;;;;5072489;28;19923;-64
2022/02/14 11:25:54;;;;;;;;;;;20.40;36.30;;;;;;5077958;28;19919;-64
2022/02/14 11:28:23;;;;;;;;;;;20.40;36.30;;;;;;5083783;28;19912;-63
2022/02/14 11:31:06;;;;;;;;;;;20.40;36.30;;;;;;5073542;28;19916;-63
2022/02/14 11:33:32;;;;;;;;;;;20.40;36.30;;;;;;5084617;28;19950;-63
2022/02/14 11:35:58;;;;;;;;;;;20.40;36.30;;;;;;5091244;28;20326;-64
2022/02/14 11:38:39;;;;;;;;;;;20.40;36.30;;;;;;5086882;28;21290;-65
2022/02/14 11:41:22;;;;;;;;;;;20.40;36.30;;;;;;5082389;28;19927;-63
2022/02/14 11:43:47;;;;;;;;;;;20.40;36.30;;;;;;5084092;28;19955;-62
2022/02/14 11:46:17;;;;;;;;;;;20.50;36.30;;;;;;5088783;28;19935;-63
2022/02/14 11:48:43;;;;;;;;;;;20.50;36.20;;;;;;5088713;28;19920;-64
2022/02/14 11:51:10;;;;;;;;;;;20.50;36.20;;;;;;5092287;28;20426;-64
2022/02/14 11:53:41;;;;;;;;;;;20.50;36.30;;;;;;5092153;28;19912;-65
2022/02/14 11:56:22;;;;;;;;;;;20.40;36.40;;;;;;5089706;28;19942;-63
2022/02/14 11:59:07;;;;;;;;;;;20.40;36.40;;;;;;5088365;28;19919;-63
2022/02/14 12:01:51;;;;;;;;;;;20.40;36.40;;;;;;5087866;28;20045;-61
2022/02/14 12:04:38;;;;;;;;;;;20.40;36.50;;;;;;5079171;28;19924;-61
2022/02/14 12:07:12;;;;;;;;;;;20.50;36.30;;;;;;5089058;28;20317;-62
2022/02/14 12:09:56;;;;;;;;;;;20.40;36.30;;;;;;5090921;28;20350;-62
2022/02/14 12:12:40;;;;;;;;;;;20.40;36.50;;;;;;5064160;28;19912;-62
2022/02/14 12:20:45;;;;;;;;;;;20.30;36.60;;;;;;5071425;28;19966;-61
2022/02/14 12:23:11;;;;;;;;;;;20.30;36.70;;;;;;5077940;28;19943;-61
2022/02/14 12:25:46;;;;;;;;;;;20.30;36.70;;;;;;5089840;28;20426;-64
2022/02/14 12:28:11;;;;;;;;;;;20.30;36.70;;;;;;5083744;28;19916;-64
2022/02/14 12:30:40;;;;;;;;;;;20.30;36.80;;;;;;5090999;28;20011;-62
2022/02/14 12:33:07;;;;;;;;;;;20.30;36.80;;;;;;5071631;28;19912;-61
2022/02/14 12:35:37;;;;;;;;;;;20.30;36.90;;;;;;5086578;28;19947;-61
2022/02/14 12:38:03;;;;;;;;;;;20.20;36.80;;;;;;5090658;28;19986;-61
2022/02/14 12:40:43;;;;;;;;;;;20.20;36.90;;;;;;5091031;28;19922;-61
2022/02/14 12:43:09;;;;;;;;;;;20.20;36.90;;;;;;5068989;28;19932;-62
2022/02/14 12:45:35;;;;;;;;;;;20.20;36.90;;;;;;5088696;28;19931;-62
2022/02/14 12:48:00;;;;;;;;;;;20.20;36.90;;;;;;5071922;28;20368;-63
2022/02/14 12:50:34;;;;;;;;;;;20.20;37.00;;;;;;5091806;28;19908;-62
2022/02/14 12:53:07;;;;;;;;;;;20.20;37.00;;;;;;5087420;28;19912;-63
2022/02/14 12:55:32;;;;;;;;;;;20.20;36.90;;;;;;5093870;28;19916;-62
2022/02/14 12:57:58;;;;;;;;;;;20.20;36.90;;;;;;5094789;28;19916;-62
2022/02/14 13:00:25;;;;;;;;;;;20.20;37.00;;;;;;5075133;28;19934;-62
2022/02/14 13:02:52;;;;;;;;;;;20.20;36.90;;;;;;5092022;28;19965;-62
2022/02/14 13:05:17;;;;;;;;;;;20.20;36.90;;;;;;5082620;28;19945;-63
2022/02/14 13:07:43;;;;;;;;;;;20.20;37.00;;;;;;5093737;28;19916;-62
2022/02/14 13:10:08;;;;;;;;;;;20.20;37.10;;;;;;5093516;28;19932;-62
2022/02/14 13:12:34;;;;;;;;;;;20.20;37.10;;;;;;5092071;28;19969;-61
2022/02/14 13:15:03;;;;;;;;;;;20.20;37.10;;;;;;5087360;28;19936;-63
2022/02/14 13:17:29;;;;;;;;;;;20.20;37.30;;;;;;5078594;28;19921;-63
2022/02/14 13:19:56;;;;;;;;;;;20.30;37.10;;;;;;5077298;28;19912;-65
2022/02/14 13:22:30;;;;;;;;;;;20.30;37.10;;;;;;5093208;28;19912;-63
2022/02/14 13:24:58;;;;;;;;;;;20.30;37.10;;;;;;5081097;28;19955;-62
2022/02/14 13:27:32;;;;;;;;;;;20.30;37.00;;;;;;5080220;28;20302;-62
2022/02/14 13:30:07;;;;;;;;;;;20.20;37.00;;;;;;5083126;28;19952;-65
2022/02/14 13:32:34;;;;;;;;;;;20.20;37.10;;;;;;5088513;28;19981;-64
2022/02/14 13:35:01;;;;;;;;;;;20.20;37.20;;;;;;5064902;28;19912;-63
2022/02/14 13:37:33;;;;;;;;;;;20.20;37.10;;;;;;5082603;28;19916;-66
2022/02/14 13:39:59;;;;;;;;;;;20.30;37.10;;;;;;5093583;28;19958;-66
2022/02/14 13:42:25;;;;;;;;;;;20.30;37.20;;;;;;5093811;28;19916;-66
2022/02/14 13:44:59;;;;;;;;;;;20.30;37.10;;;;;;5088201;28;19946;-64
2022/02/14 13:47:25;;;;;;;;;;;20.30;37.10;;;;;;5082976;28;20306;-65
2022/02/14 13:49:51;;;;;;;;;;;20.30;37.10;;;;;;5093736;28;19908;-63
2022/02/14 13:52:22;;;;;;;;;;;20.30;37.20;;;;;;5092563;28;19912;-63
2022/02/14 13:55:08;;;;;;;;;;;20.30;37.20;;;;;;5092626;28;19923;-64
2022/02/14 13:57:34;;;;;;;;;;;20.30;37.20;;;;;;5084879;28;19923;-64
2022/02/14 14:00:00;;;;;;;;;;;20.20;37.20;;;;;;5087650;28;20571;-64
2022/02/14 14:02:27;;;;;;;;;;;20.30;37.20;;;;;;5090304;28;20368;-65
2022/02/14 14:05:13;;;;;;;;;;;20.30;37.30;;;;;;5091981;28;20002;-65
2022/02/14 14:07:42;;;;;;;;;;;20.30;37.20;;;;;;5092411;28;19924;-64
2022/02/14 14:10:08;;;;;;;;;;;20.30;37.30;;;;;;5088311;28;20018;-64
2022/02/14 14:12:33;;;;;;;;;;;20.30;37.30;;;;;;5092049;28;20023;-64
2022/02/14 14:14:59;;;;;;;;;;;20.20;37.30;;;;;;5092809;28;19912;-64
2022/02/14 14:17:25;;;;;;;;;;;20.30;37.30;;;;;;5088863;28;19970;-65
2022/02/14 14:19:54;;;;;;;;;;;20.30;37.30;;;;;;5079384;28;19943;-65
2022/02/14 14:22:23;;;;;;;;;;;20.30;37.40;;;;;;5083896;28;19951;-64